Time;durP1;ratioP1;P1;durP2;ratioP2;P2;SDS_P1;SDS_P2;PMS_P1;PMS_P2;Temp;Humidity;BMP_temperature;BMP_pressure;BME280_temperature;BME280_humidity;BME280_pressure;Samples;Min_cycle;Max_cycle;Signal;HPM_P1;HPM_P2
2022/07/13 00:01:02;;;;;;;3.93;3.50;;;25.00;77.40;;;;;;5037997;28;20473;-84
2022/07/13 00:03:29;;;;;;;2.97;2.77;;;24.90;77.60;;;;;;5039271;28;20498;-87
2022/07/13 00:05:55;;;;;;;3.13;2.90;;;24.90;78.50;;;;;;5037936;28;20576;-88
2022/07/13 00:08:22;;;;;;;3.00;2.80;;;24.80;78.90;;;;;;5039451;28;20488;-85
2022/07/13 00:10:50;;;;;;;3.40;3.10;;;24.90;79.50;;;;;;5039433;28;20488;-89
2022/07/13 00:13:16;;;;;;;3.53;3.20;;;24.80;79.80;;;;;;5032898;28;20505;-83
2022/07/13 00:15:43;;;;;;;4.40;3.20;;;24.70;79.90;;;;;;5040862;28;20456;-85
2022/07/13 00:18:10;;;;;;;3.70;3.00;;;24.70;79.70;;;;;;5044543;28;20470;-85
2022/07/13 00:20:37;;;;;;;3.13;2.90;;;24.60;79.70;;;;;;5049606;28;20821;-87
2022/07/13 00:23:03;;;;;;;2.97;2.77;;;24.50;80.30;;;;;;5057287;28;20470;-88
2022/07/13 00:25:30;;;;;;;3.97;3.20;;;24.40;80.60;;;;;;5062585;28;20432;-88
2022/07/13 00:27:57;;;;;;;3.20;2.93;;;24.30;81.10;;;;;;5049661;28;20536;-87
2022/07/13 00:30:24;;;;;;;3.50;3.20;;;24.30;81.20;;;;;;5058311;28;20472;-84
2022/07/13 00:32:50;;;;;;;4.40;2.80;;;24.20;81.30;;;;;;5052250;28;20509;-84
2022/07/13 00:35:18;;;;;;;6.13;2.90;;;24.10;82.30;;;;;;5047555;28;20460;-84
2022/07/13 00:37:44;;;;;;;3.20;3.00;;;24.00;82.90;;;;;;5035858;28;20890;-84
2022/07/13 00:40:12;;;;;;;3.07;2.87;;;24.00;83.40;;;;;;5046787;28;20453;-84
2022/07/13 00:42:39;;;;;;;5.07;2.90;;;24.40;82.50;;;;;;5045757;28;20558;-84
2022/07/13 00:45:07;;;;;;;2.90;2.70;;;24.30;82.20;;;;;;5042636;28;20544;-88
2022/07/13 00:47:34;;;;;;;5.00;3.00;;;24.30;82.40;;;;;;5038976;28;20483;-84
2022/07/13 00:50:02;;;;;;;3.07;2.87;;;24.10;82.80;;;;;;5034443;28;20461;-84
2022/07/13 00:52:30;;;;;;;2.50;2.30;;;24.00;83.20;;;;;;5033840;28;20461;-85
2022/07/13 00:54:57;;;;;;;2.97;2.80;;;23.90;84.10;;;;;;5052516;28;20533;-83
2022/07/13 00:57:26;;;;;;;3.17;2.97;;;23.90;84.00;;;;;;5043281;28;20497;-84
2022/07/13 00:59:54;;;;;;;3.20;2.90;;;24.00;83.80;;;;;;5051874;28;20457;-85
2022/07/13 01:02:21;;;;;;;3.10;2.90;;;24.00;83.90;;;;;;5050064;28;20429;-88
2022/07/13 01:04:48;;;;;;;3.20;2.97;;;23.90;84.80;;;;;;5058072;28;20462;-88
2022/07/13 01:07:14;;;;;;;2.90;2.70;;;24.00;84.60;;;;;;5053727;28;20454;-85
2022/07/13 01:09:41;;;;;;;3.90;3.40;;;23.90;85.10;;;;;;5045590;28;20499;-84
2022/07/13 01:12:08;;;;;;;3.80;2.77;;;24.20;85.60;;;;;;5052905;28;20521;-86
2022/07/13 01:14:37;;;;;;;3.00;2.80;;;24.20;85.20;;;;;;5051316;28;20448;-86
2022/07/13 01:17:04;;;;;;;2.63;2.53;;;24.10;86.20;;;;;;5055783;28;20510;-84
2022/07/13 01:19:33;;;;;;;2.83;2.63;;;23.90;87.50;;;;;;5048050;28;20470;-85
2022/07/13 01:22:02;;;;;;;3.37;3.07;;;24.00;87.20;;;;;;5049380;28;20470;-88
2022/07/13 01:24:30;;;;;;;2.93;2.73;;;24.00;86.50;;;;;;5049749;28;20452;-84
2022/07/13 01:26:58;;;;;;;4.13;2.90;;;24.00;87.50;;;;;;5044998;28;20466;-86
2022/07/13 01:29:25;;;;;;;3.10;2.80;;;24.10;86.70;;;;;;5050090;28;20439;-87
2022/07/13 01:31:58;;;;;;;2.97;2.77;;;24.20;86.10;;;;;;5042734;28;20441;-85
2022/07/13 01:34:25;;;;;;;2.90;2.57;;;24.00;85.40;;;;;;5042155;28;20517;-84
2022/07/13 01:36:52;;;;;;;2.90;2.60;;;23.90;85.80;;;;;;5031520;28;20453;-87
2022/07/13 01:39:20;;;;;;;4.20;2.60;;;23.90;85.00;;;;;;5041347;28;20477;-85
2022/07/13 01:41:47;;;;;;;3.40;2.53;;;23.80;85.40;;;;;;5032264;28;20458;-85
2022/07/13 01:44:15;;;;;;;2.60;2.40;;;23.90;85.10;;;;;;5032258;28;20476;-84
2022/07/13 01:46:42;;;;;;;2.30;2.20;;;24.00;85.30;;;;;;5034825;28;20454;-87
2022/07/13 01:49:09;;;;;;;3.47;3.17;;;23.80;85.70;;;;;;5035903;28;20891;-86
2022/07/13 01:51:36;;;;;;;2.73;2.53;;;23.80;86.10;;;;;;5031935;28;20477;-83
2022/07/13 01:54:06;;;;;;;3.40;3.00;;;23.90;85.20;;;;;;5039289;28;20446;-84
2022/07/13 01:56:32;;;;;;;3.47;3.17;;;23.90;85.00;;;;;;5048530;28;20437;-85
2022/07/13 01:59:00;;;;;;;3.00;2.80;;;23.80;84.50;;;;;;5050350;28;20468;-86
2022/07/13 02:01:27;;;;;;;2.83;2.60;;;23.60;85.40;;;;;;5034899;28;20468;-83
2022/07/13 02:03:54;;;;;;;3.40;2.43;;;23.70;85.60;;;;;;5025195;28;20491;-85
2022/07/13 02:06:21;;;;;;;2.87;2.50;;;23.80;84.80;;;;;;5035317;28;20465;-85
2022/07/13 02:08:48;;;;;;;3.50;3.20;;;23.70;85.30;;;;;;5029020;28;20473;-83
2022/07/13 02:11:18;;;;;;;2.90;2.70;;;23.70;85.40;;;;;;5035274;28;20537;-85
2022/07/13 02:13:46;;;;;;;3.47;2.97;;;23.40;86.50;;;;;;5034477;28;20493;-84
2022/07/13 02:16:14;;;;;;;3.13;2.93;;;23.40;87.20;;;;;;5029714;28;20465;-83
2022/07/13 02:18:41;;;;;;;3.10;2.80;;;23.40;88.20;;;;;;5037157;28;20477;-85
2022/07/13 02:21:09;;;;;;;2.70;2.50;;;23.30;88.40;;;;;;5038605;28;20484;-86
2022/07/13 02:23:35;;;;;;;3.00;2.50;;;23.30;88.90;;;;;;5040247;28;20460;-85
2022/07/13 02:26:02;;;;;;;2.30;2.20;;;23.20;89.50;;;;;;5036680;28;20465;-85
2022/07/13 02:28:29;;;;;;;2.70;2.50;;;23.40;89.20;;;;;;5032470;28;20477;-84
2022/07/13 02:30:56;;;;;;;4.93;2.63;;;23.30;88.80;;;;;;5037173;28;20497;-86
2022/07/13 02:33:22;;;;;;;2.37;2.27;;;23.30;89.50;;;;;;5037782;28;20461;-86
2022/07/13 02:35:49;;;;;;;2.70;2.50;;;23.50;88.70;;;;;;5039111;28;20457;-87
2022/07/13 02:38:16;;;;;;;2.80;2.60;;;23.60;87.80;;;;;;5038195;28;20492;-85
2022/07/13 02:40:43;;;;;;;3.70;2.67;;;23.50;87.20;;;;;;5037952;28;20445;-85
2022/07/13 02:43:10;;;;;;;2.63;2.43;;;23.50;86.80;;;;;;5034298;28;20536;-83
2022/07/13 02:45:36;;;;;;;3.70;2.57;;;23.30;86.40;;;;;;5038469;28;20452;-85
2022/07/13 02:48:03;;;;;;;3.87;2.73;;;23.20;87.10;;;;;;5034140;28;20476;-85
2022/07/13 02:50:30;;;;;;;2.57;2.37;;;23.30;86.90;;;;;;5035393;28;20546;-85
2022/07/13 02:52:56;;;;;;;2.67;2.47;;;23.20;86.50;;;;;;5033179;28;20454;-85
2022/07/13 02:55:24;;;;;;;2.67;2.40;;;23.20;86.20;;;;;;5036791;28;20516;-87
2022/07/13 02:57:50;;;;;;;3.00;2.80;;;23.20;85.90;;;;;;5037368;28;20477;-85
2022/07/13 03:00:17;;;;;;;2.67;2.40;;;23.30;85.60;;;;;;5037711;28;20466;-86
2022/07/13 03:02:44;;;;;;;4.30;2.50;;;23.20;85.60;;;;;;5034416;28;20464;-86
2022/07/13 03:05:10;;;;;;;2.33;2.23;;;23.20;86.10;;;;;;5030807;28;20457;-84
2022/07/13 03:07:37;;;;;;;2.67;2.47;;;23.00;86.60;;;;;;5035966;28;20479;-84
2022/07/13 03:10:04;;;;;;;3.10;2.40;;;23.30;86.60;;;;;;5035251;28;20546;-86
2022/07/13 03:12:31;;;;;;;2.50;2.40;;;23.20;86.40;;;;;;5028011;28;20437;-84
2022/07/13 03:14:57;;;;;;;2.20;2.10;;;23.40;85.80;;;;;;5040396;28;20437;-83
2022/07/13 03:17:24;;;;;;;3.20;2.90;;;23.30;85.70;;;;;;5033401;28;21031;-87
2022/07/13 03:19:51;;;;;;;2.23;2.13;;;23.40;85.60;;;;;;5039731;28;20460;-84
2022/07/13 03:22:17;;;;;;;2.70;2.50;;;23.40;86.00;;;;;;5034814;28;20816;-83
2022/07/13 03:24:44;;;;;;;2.40;2.20;;;23.30;85.90;;;;;;5039686;28;21179;-83
2022/07/13 03:27:11;;;;;;;2.70;2.50;;;23.30;86.00;;;;;;5033243;28;20460;-87
2022/07/13 03:29:37;;;;;;;4.07;2.77;;;23.10;86.60;;;;;;5040387;28;20446;-83
2022/07/13 03:32:04;;;;;;;3.00;2.80;;;23.30;87.90;;;;;;5037751;28;20599;-84
2022/07/13 03:34:31;;;;;;;2.60;2.40;;;23.30;87.40;;;;;;5040972;28;20453;-86
2022/07/13 03:36:58;;;;;;;2.30;2.20;;;23.20;88.60;;;;;;5038319;28;20883;-83
2022/07/13 03:39:25;;;;;;;2.23;2.13;;;23.20;88.50;;;;;;5041564;28;20453;-82
2022/07/13 03:41:51;;;;;;;3.60;3.30;;;23.20;88.20;;;;;;5035619;28;20470;-84
2022/07/13 03:44:20;;;;;;;2.60;2.40;;;23.30;88.70;;;;;;5028380;28;20839;-85
2022/07/13 03:46:47;;;;;;;3.30;2.33;;;23.50;88.50;;;;;;5035691;28;21015;-83
2022/07/13 03:49:14;;;;;;;2.50;2.30;;;23.50;88.10;;;;;;5040691;28;20473;-83
2022/07/13 03:51:42;;;;;;;3.07;2.60;;;23.50;89.00;;;;;;5036288;28;20478;-83
2022/07/13 03:54:09;;;;;;;2.73;2.57;;;23.50;89.00;;;;;;5033586;28;20460;-84
2022/07/13 03:56:35;;;;;;;2.70;2.50;;;23.50;89.00;;;;;;5042513;28;20461;-84
2022/07/13 03:59:02;;;;;;;2.40;2.23;;;23.70;88.50;;;;;;5041395;28;20458;-83
2022/07/13 04:01:29;;;;;;;2.20;2.10;;;23.70;87.80;;;;;;5040028;28;20813;-85
2022/07/13 04:03:55;;;;;;;2.43;2.23;;;23.70;87.20;;;;;;5039032;28;20451;-84
2022/07/13 04:06:22;;;;;;;4.20;2.20;;;23.40;87.00;;;;;;5048662;28;20464;-88
2022/07/13 04:08:49;;;;;;;2.63;2.33;;;23.30;87.50;;;;;;5041011;28;20469;-85
2022/07/13 04:11:15;;;;;;;4.83;2.43;;;23.10;87.60;;;;;;5049292;28;20492;-84
2022/07/13 04:13:42;;;;;;;2.27;2.10;;;23.10;88.00;;;;;;5057083;28;20441;-86
2022/07/13 04:16:09;;;;;;;2.57;2.37;;;23.00;88.30;;;;;;5059473;28;20453;-87
2022/07/13 04:18:36;;;;;;;3.23;2.50;;;22.90;88.50;;;;;;5051793;28;20466;-87
2022/07/13 04:21:03;;;;;;;2.53;2.33;;;23.10;88.60;;;;;;5047680;28;20442;-87
2022/07/13 04:23:30;;;;;;;2.80;2.60;;;23.00;88.40;;;;;;5050982;28;20540;-86
2022/07/13 04:25:58;;;;;;;2.80;2.43;;;23.10;88.10;;;;;;5051830;28;20446;-88
2022/07/13 04:28:25;;;;;;;2.97;2.40;;;23.00;88.20;;;;;;5055508;28;20466;-87
2022/07/13 04:30:52;;;;;;;2.53;2.33;;;22.90;89.20;;;;;;5056473;28;20465;-87
2022/07/13 04:33:18;;;;;;;3.03;2.63;;;23.10;88.70;;;;;;5049858;28;20461;-87
2022/07/13 04:35:46;;;;;;;3.43;3.23;;;22.80;88.90;;;;;;5050193;28;20476;-84
2022/07/13 04:38:13;;;;;;;2.73;2.53;;;22.70;89.80;;;;;;5056965;28;20483;-86
2022/07/13 04:40:39;;;;;;;5.30;2.10;;;23.00;89.30;;;;;;5051840;28;20448;-87
2022/07/13 04:43:07;;;;;;;2.93;2.37;;;23.00;89.20;;;;;;5056037;28;20520;-85
2022/07/13 04:45:33;;;;;;;2.77;2.57;;;23.00;89.60;;;;;;5041313;28;20454;-85
2022/07/13 04:48:00;;;;;;;3.63;2.60;;;23.20;89.70;;;;;;5046588;28;20564;-84
2022/07/13 04:50:27;;;;;;;3.10;2.73;;;23.10;89.60;;;;;;5039613;28;21365;-87
2022/07/13 04:52:54;;;;;;;2.53;2.33;;;23.00;90.00;;;;;;5043017;28;20462;-87
2022/07/13 04:55:21;;;;;;;2.87;2.60;;;22.90;90.10;;;;;;5041533;28;20462;-85
2022/07/13 04:57:47;;;;;;;3.00;2.40;;;22.90;90.30;;;;;;5038609;28;20515;-83
2022/07/13 05:00:16;;;;;;;3.83;2.37;;;22.70;90.30;;;;;;5040622;28;20460;-84
2022/07/13 05:02:42;;;;;;;2.93;2.30;;;22.60;90.60;;;;;;5042777;28;20458;-84
2022/07/13 05:05:09;;;;;;;2.17;2.03;;;22.70;90.40;;;;;;5042189;28;20457;-86
2022/07/13 05:07:36;;;;;;;3.10;2.13;;;22.70;90.40;;;;;;5041299;28;20474;-86
2022/07/13 05:10:06;;;;;;;2.63;2.13;;;22.60;90.50;;;;;;5040432;28;20919;-84
2022/07/13 05:12:39;;;;;;;2.57;2.37;;;22.70;91.00;;;;;;5043174;28;20536;-83
2022/07/13 05:15:08;;;;;;;2.90;2.70;;;22.80;90.60;;;;;;5034630;28;20545;-85
2022/07/13 05:17:34;;;;;;;2.87;2.67;;;22.60;90.80;;;;;;5030056;28;20478;-85
2022/07/13 05:20:02;;;;;;;5.20;2.60;;;22.80;90.60;;;;;;5029505;28;20470;-85
2022/07/13 05:22:30;;;;;;;3.10;2.70;;;22.80;90.50;;;;;;5047279;28;20457;-83
2022/07/13 05:24:57;;;;;;;4.40;3.57;;;22.90;90.60;;;;;;5034836;28;20552;-84
2022/07/13 05:27:23;;;;;;;4.40;2.80;;;22.80;90.80;;;;;;5035463;28;20480;-84
2022/07/13 05:29:50;;;;;;;6.90;3.10;;;22.70;91.20;;;;;;5041657;28;20465;-87
2022/07/13 05:32:17;;;;;;;3.33;3.03;;;22.70;91.10;;;;;;5037852;28;20556;-85
2022/07/13 05:34:44;;;;;;;3.57;3.27;;;22.70;91.30;;;;;;5047531;28;20460;-86
2022/07/13 05:37:11;;;;;;;5.20;3.40;;;22.90;91.40;;;;;;5047365;28;20464;-85
2022/07/13 05:39:41;;;;;;;6.23;3.20;;;23.00;90.80;;;;;;5037204;28;20466;-87
2022/07/13 05:42:08;;;;;;;4.03;3.17;;;23.00;90.80;;;;;;5033247;28;20461;-84
2022/07/13 05:44:34;;;;;;;4.07;2.90;;;23.10;90.60;;;;;;5031314;28;20462;-82
2022/07/13 05:47:01;;;;;;;4.23;3.20;;;23.10;90.40;;;;;;5032139;28;20540;-82
2022/07/13 05:49:28;;;;;;;2.93;2.63;;;23.00;90.60;;;;;;5031885;28;20457;-83
2022/07/13 05:51:55;;;;;;;3.03;2.73;;;23.10;90.50;;;;;;5035413;28;20473;-89
2022/07/13 05:54:21;;;;;;;5.73;2.73;;;23.00;90.80;;;;;;5044334;28;20461;-85
2022/07/13 05:57:08;;;;;;;3.50;2.17;;;23.20;90.40;;;;;;5036818;28;20466;-85
2022/07/13 05:59:35;;;;;;;2.83;2.60;;;23.00;90.30;;;;;;5034564;28;20475;-84
2022/07/13 06:02:01;;;;;;;3.10;2.80;;;22.80;91.20;;;;;;5038293;28;20462;-87
2022/07/13 06:04:28;;;;;;;2.83;2.63;;;22.90;91.50;;;;;;5035162;28;20524;-85
2022/07/13 06:06:55;;;;;;;2.80;2.50;;;22.90;91.40;;;;;;5036546;28;20484;-84
2022/07/13 06:09:22;;;;;;;2.17;2.07;;;23.10;91.20;;;;;;5037995;28;20507;-85
2022/07/13 06:11:48;;;;;;;5.03;3.13;;;23.30;90.70;;;;;;5028191;28;20473;-86
2022/07/13 06:14:17;;;;;;;3.10;2.70;;;23.10;90.80;;;;;;5038444;28;20457;-84
2022/07/13 06:16:44;;;;;;;4.40;2.60;;;23.30;90.80;;;;;;5040852;28;20551;-86
2022/07/13 06:19:11;;;;;;;6.43;2.80;;;23.40;90.40;;;;;;5031180;28;20480;-84
2022/07/13 06:21:38;;;;;;;4.80;2.60;;;23.70;89.80;;;;;;5033557;28;21074;-83
2022/07/13 06:24:05;;;;;;;2.90;2.60;;;23.80;89.30;;;;;;5039412;28;20475;-85
2022/07/13 06:26:32;;;;;;;2.90;2.70;;;23.90;89.00;;;;;;5032519;28;20460;-85
2022/07/13 06:28:58;;;;;;;3.30;3.10;;;23.90;89.60;;;;;;5037387;28;20477;-86
2022/07/13 06:31:25;;;;;;;3.40;3.10;;;23.80;90.00;;;;;;5035173;28;20477;-84
2022/07/13 06:33:52;;;;;;;3.97;3.03;;;24.00;89.90;;;;;;5034018;28;20453;-86
2022/07/13 06:36:19;;;;;;;2.97;2.53;;;24.00;90.10;;;;;;5037853;28;20541;-83
2022/07/13 06:38:46;;;;;;;2.87;2.60;;;24.00;90.20;;;;;;5037983;28;20486;-84
2022/07/13 06:41:12;;;;;;;2.67;2.47;;;23.90;90.20;;;;;;5030611;28;20462;-83
2022/07/13 06:43:39;;;;;;;3.73;3.10;;;24.10;89.50;;;;;;5033547;28;20815;-84
2022/07/13 06:46:06;;;;;;;3.20;2.73;;;24.40;89.30;;;;;;5039035;28;20448;-84
2022/07/13 06:48:34;;;;;;;4.10;2.93;;;24.70;87.90;;;;;;5037068;28;20527;-85
2022/07/13 06:51:01;;;;;;;3.73;2.70;;;24.80;86.80;;;;;;5038985;28;20481;-85
2022/07/13 06:53:27;;;;;;;86.30;13.37;;;24.90;86.90;;;;;;5037322;28;20464;-86
2022/07/13 06:55:54;;;;;;;2.87;2.60;;;24.80;86.30;;;;;;5037612;28;20469;-86
2022/07/13 06:58:21;;;;;;;5.23;2.70;;;24.90;86.20;;;;;;5033142;28;20469;-84
2022/07/13 07:00:48;;;;;;;3.67;2.40;;;25.10;86.00;;;;;;5036255;28;20511;-86
2022/07/13 07:03:15;;;;;;;3.97;3.10;;;25.10;84.70;;;;;;5039982;28;20860;-86
2022/07/13 07:05:41;;;;;;;5.23;2.97;;;25.10;84.20;;;;;;5039004;28;20442;-85
2022/07/13 07:08:08;;;;;;;3.63;2.77;;;25.20;84.00;;;;;;5041695;28;20508;-85
2022/07/13 07:10:35;;;;;;;4.43;4.03;;;25.30;83.80;;;;;;5042702;28;20453;-85
2022/07/13 07:13:05;;;;;;;5.03;2.40;;;25.50;82.50;;;;;;5036126;28;20499;-83
2022/07/13 07:15:32;;;;;;;3.83;2.30;;;25.70;82.20;;;;;;5035387;28;20445;-83
2022/07/13 07:17:58;;;;;;;4.90;2.77;;;25.80;81.30;;;;;;5043064;28;20496;-83
2022/07/13 07:20:29;;;;;;;4.50;2.73;;;25.80;80.70;;;;;;5029889;28;20453;-83
2022/07/13 07:22:56;;;;;;;3.50;2.60;;;25.70;80.90;;;;;;5039187;28;20453;-83
2022/07/13 07:25:23;;;;;;;2.90;2.60;;;25.70;82.10;;;;;;5044686;28;20485;-86
2022/07/13 07:27:50;;;;;;;2.77;2.50;;;25.70;81.60;;;;;;5038705;28;20536;-86
2022/07/13 07:30:17;;;;;;;5.23;3.23;;;25.60;82.20;;;;;;5056366;28;20536;-85
2022/07/13 07:32:44;;;;;;;3.03;2.53;;;25.70;81.30;;;;;;5043874;28;20473;-84
2022/07/13 07:35:11;;;;;;;3.07;2.50;;;25.60;81.50;;;;;;5059918;28;20452;-87
2022/07/13 07:37:39;;;;;;;5.00;2.80;;;25.70;80.80;;;;;;5042234;28;20552;-83
2022/07/13 07:40:08;;;;;;;4.50;3.03;;;25.90;80.00;;;;;;5061884;28;20453;-87
2022/07/13 07:42:35;;;;;;;3.70;3.13;;;25.90;79.70;;;;;;5042237;28;20476;-84
2022/07/13 07:45:06;;;;;;;5.30;3.67;;;25.90;79.60;;;;;;5037723;28;20969;-86
2022/07/13 07:47:33;;;;;;;4.03;2.87;;;25.90;79.60;;;;;;5047864;28;20483;-84
2022/07/13 07:49:59;;;;;;;9.37;2.83;;;25.80;80.00;;;;;;5043903;28;20449;-85
2022/07/13 07:52:28;;;;;;;3.87;2.60;;;25.80;80.20;;;;;;5050427;28;20461;-84
2022/07/13 07:55:15;;;;;;;5.20;2.40;;;25.90;80.90;;;;;;5050368;28;20520;-84
2022/07/13 07:57:47;;;;;;;4.83;2.60;;;25.90;79.60;;;;;;5047624;28;20540;-86
2022/07/13 08:00:15;;;;;;;3.43;2.40;;;25.90;79.70;;;;;;5041983;28;20446;-83
2022/07/13 08:02:43;;;;;;;4.37;2.80;;;25.70;80.60;;;;;;5052711;28;20534;-85
2022/07/13 08:05:10;;;;;;;5.73;2.80;;;26.00;78.80;;;;;;5051317;28;20450;-88
2022/07/13 08:07:48;;;;;;;5.57;4.30;;;26.00;79.80;;;;;;5047545;28;20503;-86
2022/07/13 08:10:15;;;;;;;3.60;2.30;;;25.90;82.90;;;;;;5040031;28;20453;-86
2022/07/13 08:12:53;;;;;;;7.00;2.73;;;26.10;81.60;;;;;;5045415;28;20509;-84
2022/07/13 08:15:22;;;;;;;5.53;2.97;;;25.90;76.70;;;;;;5046202;28;20829;-84
2022/07/13 08:17:49;;;;;;;4.00;3.20;;;25.70;79.20;;;;;;5045952;28;20472;-84
2022/07/13 08:20:16;;;;;;;14.37;3.17;;;25.40;82.40;;;;;;5048325;28;20464;-84
2022/07/13 08:22:47;;;;;;;6.70;3.23;;;25.30;83.30;;;;;;5043692;28;20445;-83
2022/07/13 08:25:14;;;;;;;3.23;2.93;;;25.60;84.00;;;;;;5035435;28;20458;-84
2022/07/13 08:27:40;;;;;;;3.33;3.03;;;25.80;80.10;;;;;;5031620;28;20480;-85
2022/07/13 08:30:08;;;;;;;3.07;2.77;;;26.00;80.90;;;;;;5037140;28;20533;-87
2022/07/13 08:32:34;;;;;;;4.47;2.97;;;26.30;84.70;;;;;;5040856;28;20497;-84
2022/07/13 08:40:34;;;;;;;3.53;2.70;;;26.50;81.20;;;;;;5039952;28;20453;-84
2022/07/13 08:43:01;;;;;;;4.37;2.83;;;27.20;80.20;;;;;;5040705;28;20935;-83
2022/07/13 08:45:28;;;;;;;3.00;2.50;;;27.70;78.30;;;;;;5039145;28;20966;-85
2022/07/13 08:47:57;;;;;;;2.90;2.40;;;28.50;72.60;;;;;;5036228;28;20469;-86
2022/07/13 08:50:27;;;;;;;4.03;3.63;;;28.30;70.60;;;;;;5039954;28;20472;-83
2022/07/13 08:52:54;;;;;;;4.67;3.10;;;28.10;72.40;;;;;;5040557;28;20962;-85
2022/07/13 08:55:22;;;;;;;3.80;3.00;;;27.90;73.30;;;;;;5048564;28;20453;-85
2022/07/13 08:57:49;;;;;;;3.60;2.83;;;28.00;73.40;;;;;;5037304;28;20474;-84
2022/07/13 09:00:17;;;;;;;3.97;3.50;;;28.40;72.90;;;;;;5026268;28;20469;-87
2022/07/13 09:02:48;;;;;;;3.90;2.90;;;28.70;70.00;;;;;;5030458;28;20450;-86
2022/07/13 09:05:20;;;;;;;3.33;2.67;;;28.60;70.00;;;;;;5041900;28;20529;-85
2022/07/13 09:08:05;;;;;;;2.80;2.60;;;28.40;70.30;;;;;;5027664;28;20469;-85
2022/07/13 09:10:56;;;;;;;7.03;2.90;;;28.50;69.70;;;;;;5044535;28;20461;-86
2022/07/13 09:13:44;;;;;;;2.50;2.30;;;28.50;68.30;;;;;;5046854;28;20583;-86
2022/07/13 09:16:14;;;;;;;2.90;2.60;;;28.80;68.50;;;;;;5032203;28;20604;-85
2022/07/13 09:18:45;;;;;;;4.63;2.63;;;29.00;68.50;;;;;;5028626;28;20513;-82
2022/07/13 09:21:12;;;;;;;4.80;2.80;;;29.30;66.80;;;;;;5022625;28;20495;-85
2022/07/13 09:23:40;;;;;;;2.93;2.60;;;29.00;65.60;;;;;;5035826;28;20500;-86
2022/07/13 09:26:07;;;;;;;3.40;2.60;;;29.00;64.40;;;;;;5037212;28;20445;-86
2022/07/13 09:28:42;;;;;;;5.10;3.20;;;29.00;64.70;;;;;;5035847;28;20488;-87
2022/07/13 09:31:10;;;;;;;4.00;2.83;;;28.80;64.60;;;;;;5039677;28;20449;-85
2022/07/13 09:33:39;;;;;;;4.03;2.70;;;28.70;64.50;;;;;;5037826;28;20524;-86
2022/07/13 09:36:15;;;;;;;7.00;3.30;;;29.00;63.90;;;;;;5054750;28;20971;-84
2022/07/13 09:38:46;;;;;;;3.87;2.40;;;29.20;63.30;;;;;;5033533;28;20540;-85
2022/07/13 09:41:26;;;;;;;7.30;2.50;;;29.00;63.00;;;;;;5062407;28;20472;-88
2022/07/13 09:46:57;;;;;;;2.90;2.60;;;29.20;63.90;;;;;;5042693;28;20453;-85
2022/07/13 09:49:35;;;;;;;4.10;2.83;;;29.90;60.30;;;;;;5047672;28;20584;-87
2022/07/13 09:52:07;;;;;;;2.97;2.70;;;30.00;59.10;;;;;;5042148;28;20464;-89
2022/07/13 09:54:39;;;;;;;5.47;3.10;;;30.30;58.90;;;;;;5052675;28;20488;-87
2022/07/13 09:57:13;;;;;;;4.83;2.97;;;29.90;58.30;;;;;;5059610;28;20434;-87
2022/07/13 09:59:42;;;;;;;3.73;3.00;;;30.20;58.60;;;;;;5050095;28;20440;-86
2022/07/13 10:02:09;;;;;;;3.03;2.77;;;30.30;58.30;;;;;;5048474;28;20481;-86
2022/07/13 10:04:37;;;;;;;4.70;2.40;;;30.30;58.90;;;;;;5041288;28;20851;-84
2022/07/13 10:07:15;;;;;;;5.00;2.73;;;30.10;52.70;;;;;;5039075;28;20449;-85
2022/07/13 10:09:42;;;;;;;7.40;3.23;;;30.00;51.20;;;;;;5042222;28;20514;-86
2022/07/13 10:12:10;;;;;;;3.30;2.47;;;29.80;50.60;;;;;;5043766;28;20481;-84
2022/07/13 10:14:39;;;;;;;5.53;2.23;;;29.50;50.40;;;;;;5052324;28;20455;-88
2022/07/13 10:17:11;;;;;;;4.90;2.93;;;29.20;50.90;;;;;;5045604;28;20460;-85
2022/07/13 10:19:44;;;;;;;5.03;2.07;;;29.00;51.10;;;;;;5037684;28;20464;-87
2022/07/13 10:22:17;;;;;;;5.83;2.40;;;28.90;51.30;;;;;;5042888;28;20826;-86
2022/07/13 10:24:52;;;;;;;2.80;2.20;;;28.90;51.10;;;;;;5047069;28;20450;-85
2022/07/13 10:27:27;;;;;;;13.73;2.73;;;28.90;51.30;;;;;;5051106;28;20454;-84
2022/07/13 10:30:04;;;;;;;3.03;2.67;;;28.80;51.20;;;;;;5046479;28;20457;-87
2022/07/13 10:32:34;;;;;;;3.17;2.60;;;28.70;51.30;;;;;;5043191;28;20472;-85
2022/07/13 10:35:04;;;;;;;5.07;2.47;;;28.70;51.30;;;;;;5052210;28;20445;-86
2022/07/13 10:37:56;;;;;;;3.00;2.60;;;28.60;51.70;;;;;;5044591;28;20457;-86
2022/07/13 10:40:28;;;;;;;8.80;3.07;;;28.60;52.50;;;;;;5048382;28;20497;-86
2022/07/13 10:42:59;;;;;;;3.40;2.50;;;28.60;52.20;;;;;;5042607;28;20454;-85
2022/07/13 10:45:32;;;;;;;4.57;2.80;;;28.60;51.80;;;;;;5043957;28;20488;-85
2022/07/13 10:48:01;;;;;;;5.73;2.47;;;28.50;52.20;;;;;;5042782;28;20481;-87
2022/07/13 10:50:36;;;;;;;3.97;2.73;;;28.50;52.30;;;;;;5049503;28;20456;-88
2022/07/13 10:53:07;;;;;;;2.50;2.30;;;28.60;52.50;;;;;;5043790;28;20558;-86
2022/07/13 10:55:51;;;;;;;4.27;3.03;;;28.60;52.10;;;;;;5038603;28;20449;-86
2022/07/13 10:58:32;;;;;;;7.07;4.27;;;28.80;52.50;;;;;;5029311;28;20523;-86
2022/07/13 11:01:49;;;;;;;5.07;2.73;;;29.00;52.00;;;;;;5033047;28;20457;-85
2022/07/13 11:04:19;;;;;;;6.60;3.60;;;29.10;51.60;;;;;;5036416;28;20463;-86
2022/07/13 11:07:06;;;;;;;5.50;2.93;;;29.20;51.50;;;;;;5041117;28;20453;-84
2022/07/13 11:09:33;;;;;;;2.73;2.40;;;29.10;51.20;;;;;;5036283;28;20445;-87
2022/07/13 11:12:00;;;;;;;3.00;2.30;;;29.00;51.30;;;;;;5031718;28;20442;-86
2022/07/13 11:14:39;;;;;;;3.20;2.80;;;28.90;51.60;;;;;;5029911;28;20461;-84
2022/07/13 11:17:16;;;;;;;4.87;3.60;;;29.10;51.90;;;;;;5038872;28;20492;-86
2022/07/13 11:19:53;;;;;;;3.67;3.20;;;29.80;51.30;;;;;;5037394;28;20437;-84
2022/07/13 11:22:21;;;;;;;1.97;1.87;;;30.40;50.20;;;;;;5037396;28;20461;-86
2022/07/13 11:25:14;;;;;;;3.43;1.80;;;31.00;49.30;;;;;;5028072;28;20442;-86
2022/07/13 11:28:09;;;;;;;2.77;2.40;;;31.10;47.90;;;;;;5038959;28;20492;-86
2022/07/13 11:30:36;;;;;;;2.30;2.10;;;30.80;48.10;;;;;;5035753;28;20453;-87
2022/07/13 11:33:10;;;;;;;2.10;1.90;;;30.70;48.20;;;;;;5042415;28;20477;-86
2022/07/13 11:35:41;;;;;;;4.03;2.10;;;30.50;48.50;;;;;;5042331;28;20433;-84
2022/07/13 11:38:08;;;;;;;3.30;2.60;;;30.30;49.10;;;;;;5033003;28;20477;-84
2022/07/13 11:40:41;;;;;;;5.70;1.90;;;30.40;49.40;;;;;;5039432;28;20441;-85
2022/07/13 11:43:09;;;;;;;4.20;2.40;;;30.30;49.10;;;;;;5047299;28;20521;-84
2022/07/13 11:45:39;;;;;;;3.60;3.30;;;30.10;49.90;;;;;;5048124;28;20513;-84
2022/07/13 11:48:10;;;;;;;3.17;1.90;;;30.30;50.00;;;;;;5039676;28;20457;-85
2022/07/13 11:50:40;;;;;;;3.80;2.70;;;30.50;49.50;;;;;;5054509;28;20552;-87
2022/07/13 11:53:07;;;;;;;2.67;2.47;;;31.00;48.80;;;;;;5056703;28;20487;-87
2022/07/13 11:55:35;;;;;;;3.47;2.27;;;31.30;48.00;;;;;;5057077;28;20445;-88
2022/07/13 11:58:03;;;;;;;2.80;2.07;;;31.40;47.90;;;;;;5057130;28;20467;-87
2022/07/13 12:00:31;;;;;;;2.20;2.00;;;31.30;48.00;;;;;;5056130;28;20540;-89
2022/07/13 12:02:58;;;;;;;2.40;2.20;;;31.30;48.40;;;;;;5053612;28;20446;-85
2022/07/13 12:05:27;;;;;;;5.80;2.57;;;31.30;48.10;;;;;;5045031;28;20441;-89
2022/07/13 12:08:03;;;;;;;2.20;1.77;;;31.40;48.50;;;;;;5050721;28;20560;-87
2022/07/13 12:10:36;;;;;;;1.70;1.60;;;31.40;47.20;;;;;;5037596;28;20455;-87
2022/07/13 12:13:04;;;;;;;2.47;1.70;;;31.40;47.50;;;;;;5036182;28;20489;-85
2022/07/13 12:15:30;;;;;;;2.60;1.63;;;31.50;47.70;;;;;;5042535;28;20552;-86
2022/07/13 12:18:04;;;;;;;2.20;1.83;;;31.50;47.60;;;;;;5033204;28;20556;-85
2022/07/13 12:20:33;;;;;;;2.30;1.87;;;31.60;48.00;;;;;;5038098;28;21022;-86
2022/07/13 12:23:00;;;;;;;3.53;2.10;;;31.60;47.70;;;;;;5044961;28;20536;-86
2022/07/13 12:25:32;;;;;;;2.10;1.90;;;31.60;47.70;;;;;;5045510;28;20517;-86
2022/07/13 12:28:00;;;;;;;3.00;1.70;;;31.60;47.60;;;;;;5039802;28;20906;-88
2022/07/13 12:30:32;;;;;;;3.63;2.20;;;31.60;47.80;;;;;;5043042;28;20437;-84
2022/07/13 12:33:03;;;;;;;2.47;2.00;;;31.70;47.50;;;;;;5039051;28;20480;-85
2022/07/13 12:35:31;;;;;;;2.80;2.00;;;31.60;47.60;;;;;;5038842;28;20445;-85
2022/07/13 12:37:59;;;;;;;2.30;1.50;;;31.60;48.30;;;;;;5033698;28;20464;-85
2022/07/13 12:40:44;;;;;;;2.20;1.83;;;31.70;47.60;;;;;;5031275;28;20935;-86
2022/07/13 12:43:24;;;;;;;3.27;2.00;;;31.60;47.40;;;;;;5037350;28;20441;-85
2022/07/13 12:45:52;;;;;;;1.50;1.40;;;31.60;46.70;;;;;;5040075;28;20449;-85
2022/07/13 12:48:24;;;;;;;2.30;1.70;;;31.40;46.70;;;;;;5034280;28;20492;-85
2022/07/13 12:50:56;;;;;;;1.90;1.77;;;31.40;47.20;;;;;;5042382;28;20923;-83
2022/07/13 12:53:24;;;;;;;2.60;1.63;;;31.40;47.40;;;;;;5039031;28;20479;-84
2022/07/13 12:55:55;;;;;;;1.90;1.73;;;31.60;47.30;;;;;;5043384;28;20437;-85
2022/07/13 12:58:42;;;;;;;2.13;1.53;;;31.50;46.00;;;;;;5044287;28;20496;-85
2022/07/13 13:01:24;;;;;;;6.47;2.43;;;31.50;46.20;;;;;;5036057;28;20453;-87
2022/07/13 13:03:51;;;;;;;2.97;2.00;;;31.60;46.50;;;;;;5041089;28;20471;-84